createdAt,value
2023-04-14T00:00:41.708Z,7.30
2023-04-14T00:03:17.633Z,7.30
2023-04-14T00:05:51.180Z,7.20
2023-04-14T00:08:24.689Z,7.20
2023-04-14T00:10:58.167Z,7.10
2023-04-14T00:13:31.605Z,7.10
2023-04-14T00:16:05.289Z,7.10
2023-04-14T00:18:40.132Z,7.10
2023-04-14T00:21:13.578Z,7.10
2023-04-14T00:23:47.034Z,7.10
2023-04-14T00:26:20.677Z,7.10
2023-04-14T00:28:54.521Z,7.10
2023-04-14T00:31:28.028Z,7.10
2023-04-14T00:34:03.013Z,7.10
2023-04-14T00:36:37.641Z,7.10
2023-04-14T00:39:11.098Z,7.10
2023-04-14T00:41:44.561Z,7.10
2023-04-14T00:44:18.033Z,7.10
2023-04-14T00:46:52.053Z,7.10
2023-04-14T00:49:27.224Z,7.10
2023-04-14T00:52:01.536Z,7.10
2023-04-14T00:54:36.970Z,7.20
2023-04-14T00:57:11.353Z,7.20
2023-04-14T00:59:44.994Z,7.10
2023-04-14T01:02:18.604Z,7.10
2023-04-14T01:04:54.866Z,7.10
2023-04-14T01:07:29.434Z,7.10
2023-04-14T01:10:03.689Z,7.10
2023-04-14T01:12:55.791Z,7.00
2023-04-14T01:15:35.645Z,7.00
2023-04-14T01:18:17.569Z,6.90
2023-04-14T01:20:57.809Z,6.90
2023-04-14T01:23:36.945Z,6.80
2023-04-14T01:26:29.963Z,6.70
2023-04-14T01:29:41.487Z,6.70
2023-04-14T01:32:21.338Z,6.60
2023-04-14T01:34:58.369Z,6.50
2023-04-14T01:37:37.512Z,6.50
2023-04-14T01:40:15.559Z,6.40
2023-04-14T01:42:56.435Z,6.30
2023-04-14T01:45:34.944Z,6.30
2023-04-14T01:48:10.493Z,6.20
2023-04-14T01:50:46.901Z,6.10
2023-04-14T01:53:21.720Z,6.00
2023-04-14T01:55:57.278Z,6.00
2023-04-14T01:58:32.635Z,5.90
2023-04-14T02:01:08.029Z,5.80
2023-04-14T02:03:44.159Z,5.70
2023-04-14T02:06:18.996Z,5.70
2023-04-14T02:08:53.363Z,5.60
2023-04-14T02:11:28.867Z,5.60
2023-04-14T02:14:05.317Z,5.50
2023-04-14T02:16:40.210Z,5.50
2023-04-14T02:19:16.621Z,5.50
2023-04-14T02:21:52.185Z,5.50
2023-04-14T02:24:25.774Z,5.40
2023-04-14T02:27:08.045Z,5.40
2023-04-14T02:29:46.402Z,5.40
2023-04-14T02:32:26.137Z,5.40
2023-04-14T02:35:06.109Z,5.30
2023-04-14T02:37:45.839Z,5.30
2023-04-14T02:40:27.476Z,5.30
2023-04-14T02:43:05.633Z,5.20
2023-04-14T02:45:59.575Z,5.20
2023-04-14T02:48:35.986Z,5.10
2023-04-14T02:51:12.583Z,5.10
2023-04-14T02:53:47.010Z,5.00
2023-04-14T02:56:31.444Z,5.00
2023-04-14T02:59:06.141Z,4.90
2023-04-14T03:01:42.085Z,4.90
2023-04-14T03:04:18.041Z,4.90
2023-04-14T03:06:55.930Z,4.80
2023-04-14T03:09:30.693Z,4.80
2023-04-14T03:12:08.009Z,4.70
2023-04-14T03:14:43.202Z,4.70
2023-04-14T03:17:18.442Z,4.70
2023-04-14T03:19:53.419Z,4.70
2023-04-14T03:22:29.782Z,4.60
2023-04-14T03:25:03.517Z,4.60
2023-04-14T03:27:39.301Z,4.60
2023-04-14T03:30:15.530Z,4.60
2023-04-14T03:32:50.974Z,4.50
2023-04-14T03:35:25.888Z,4.50
2023-04-14T03:38:02.764Z,4.40
2023-04-14T03:40:38.596Z,4.40
2023-04-14T03:43:14.213Z,4.40
2023-04-14T03:45:50.229Z,4.30
2023-04-14T03:48:29.901Z,4.30
2023-04-14T03:51:08.518Z,4.30
2023-04-14T03:53:46.471Z,4.20
2023-04-14T03:56:21.510Z,4.20
2023-04-14T03:58:56.957Z,4.20
2023-04-14T04:01:30.985Z,4.10
2023-04-14T04:04:06.959Z,4.10
2023-04-14T04:06:42.030Z,4.10
2023-04-14T04:09:18.088Z,4.10
2023-04-14T04:11:53.004Z,4.10
2023-04-14T04:14:30.045Z,4.20
2023-04-14T04:17:08.377Z,4.20
2023-04-14T04:19:44.717Z,4.20
2023-04-14T04:22:20.409Z,4.20
2023-04-14T04:24:57.202Z,4.20
2023-04-14T04:27:35.629Z,4.20
2023-04-14T04:30:19.352Z,4.30
2023-04-14T04:32:54.708Z,4.30
2023-04-14T04:35:28.856Z,4.30
2023-04-14T04:38:02.549Z,4.40
2023-04-14T04:40:41.290Z,4.40
2023-04-14T04:43:29.433Z,4.50
2023-04-14T04:46:33.904Z,4.50
2023-04-14T04:49:07.478Z,4.60
2023-04-14T04:51:41.270Z,4.60
2023-04-14T04:54:14.773Z,4.60
2023-04-14T04:56:49.629Z,4.70
2023-04-14T04:59:23.069Z,4.70
2023-04-14T05:01:56.774Z,4.80
2023-04-14T05:04:30.464Z,4.80
2023-04-14T05:07:04.431Z,4.90
2023-04-14T05:09:37.910Z,5.00
2023-04-14T05:12:12.767Z,5.00
2023-04-14T05:14:46.383Z,5.10
2023-04-14T05:17:19.846Z,5.20
2023-04-14T05:19:53.280Z,5.30
2023-04-14T05:22:26.735Z,5.40
2023-04-14T05:25:00.369Z,5.50
2023-04-14T05:27:35.477Z,5.60
2023-04-14T05:30:09.961Z,5.70
2023-04-14T05:32:43.859Z,5.80
2023-04-14T05:35:17.446Z,5.90
2023-04-14T05:37:51.211Z,6.00
2023-04-14T05:40:24.750Z,6.10
2023-04-14T05:42:59.613Z,6.30
2023-04-14T05:45:33.277Z,6.40
2023-04-14T05:48:06.947Z,6.50
2023-04-14T05:50:40.659Z,6.60
2023-04-14T05:53:14.543Z,6.70
2023-04-14T05:55:48.839Z,6.80
2023-04-14T05:58:24.967Z,7.00
2023-04-14T06:00:58.446Z,7.10
2023-04-14T06:03:32.038Z,7.20
2023-04-14T06:06:06.178Z,7.30
2023-04-14T06:08:39.681Z,7.40
2023-04-14T06:11:14.176Z,7.60
2023-04-14T06:13:49.007Z,7.70
2023-04-14T06:16:22.552Z,7.80
2023-04-14T06:18:56.182Z,8.00
2023-04-14T06:21:29.611Z,8.10
2023-04-14T06:24:03.026Z,8.20
2023-04-14T06:26:36.964Z,8.30
2023-04-14T06:29:12.018Z,8.50
2023-04-14T06:31:45.787Z,8.70
2023-04-14T06:34:19.401Z,8.90
2023-04-14T06:36:53.068Z,9.00
2023-04-14T06:39:27.461Z,9.30
2023-04-14T06:42:01.010Z,9.50
2023-04-14T06:44:35.942Z,9.70
2023-04-14T06:47:09.426Z,9.90
2023-04-14T06:49:42.858Z,10.20
2023-04-14T06:52:16.319Z,10.40
2023-04-14T06:54:49.998Z,10.60
2023-04-14T06:57:23.439Z,10.80
2023-04-14T06:59:58.545Z,11.10
2023-04-14T07:02:32.536Z,11.30
2023-04-14T07:05:07.319Z,11.50
2023-04-14T07:07:41.059Z,11.70
2023-04-14T07:10:14.690Z,11.90
2023-04-14T07:12:48.242Z,12.00
2023-04-14T07:15:23.311Z,12.10
2023-04-14T07:17:59.771Z,12.30
2023-04-14T07:20:34.023Z,12.50
2023-04-14T07:23:11.338Z,12.60
2023-04-14T07:25:45.757Z,12.80
2023-04-14T07:28:23.225Z,12.90
2023-04-14T07:30:58.351Z,13.00
2023-04-14T07:33:32.953Z,13.10
2023-04-14T07:36:07.471Z,13.20
2023-04-14T07:38:41.481Z,13.30
2023-04-14T07:41:15.206Z,13.30
2023-04-14T07:43:48.816Z,13.40
2023-04-14T07:46:23.748Z,13.50
2023-04-14T07:48:57.321Z,13.70
2023-04-14T07:51:30.858Z,13.80
2023-04-14T07:54:05.972Z,14.00
2023-04-14T07:56:39.645Z,14.30
2023-04-14T07:59:13.170Z,14.50
2023-04-14T08:01:48.585Z,14.70
2023-04-14T08:04:22.479Z,14.90
2023-04-14T08:06:55.942Z,14.90
2023-04-14T08:09:29.446Z,15.00
2023-04-14T08:12:02.972Z,15.10
2023-04-14T08:14:36.500Z,15.10
2023-04-14T08:17:11.480Z,15.10
2023-04-14T08:19:45.249Z,15.10
2023-04-14T08:22:18.937Z,15.20
2023-04-14T08:24:52.477Z,15.20
2023-04-14T08:27:25.920Z,15.30
2023-04-14T08:29:59.361Z,15.50
2023-04-14T08:32:34.449Z,15.70
2023-04-14T08:35:39.581Z,15.80
2023-04-14T08:38:01.756Z,15.80
2023-04-14T08:40:38.462Z,15.90
2023-04-14T08:43:14.760Z,15.90
2023-04-14T08:45:51.571Z,16.00
2023-04-14T08:48:31.102Z,16.20
2023-04-14T08:51:08.586Z,16.50
2023-04-14T08:53:45.727Z,16.70
2023-04-14T08:56:21.585Z,16.90
2023-04-14T08:58:55.467Z,17.00
2023-04-14T09:01:30.456Z,17.20
2023-04-14T09:04:06.884Z,17.10
2023-04-14T09:06:41.430Z,17.00
2023-04-14T09:09:15.071Z,17.10
2023-04-14T09:11:49.104Z,17.10
2023-04-14T09:14:23.229Z,17.00
2023-04-14T09:16:57.199Z,17.10
2023-04-14T09:19:32.437Z,17.00
2023-04-14T09:22:06.293Z,17.00
2023-04-14T09:24:39.788Z,17.10
2023-04-14T09:27:13.323Z,17.10
2023-04-14T09:29:47.724Z,17.20
2023-04-14T09:32:22.849Z,17.10
2023-04-14T09:34:58.474Z,17.20
2023-04-14T09:37:43.724Z,17.00
2023-04-14T09:40:29.435Z,16.90
2023-04-14T09:43:02.955Z,16.90
2023-04-14T09:45:43.610Z,16.80
2023-04-14T09:48:17.082Z,16.70
2023-04-14T09:51:03.476Z,16.70
2023-04-14T09:53:37.984Z,16.70
2023-04-14T09:56:13.211Z,16.60
2023-04-14T09:58:46.814Z,16.50
2023-04-14T10:01:21.687Z,16.30
2023-04-14T10:03:55.238Z,16.20
2023-04-14T10:06:31.373Z,16.20
2023-04-14T10:09:05.895Z,16.20
2023-04-14T10:11:39.789Z,16.20
2023-04-14T10:14:13.248Z,16.30
2023-04-14T10:16:46.711Z,16.40
2023-04-14T10:19:21.879Z,16.60
2023-04-14T10:21:57.412Z,16.80
2023-04-14T10:24:31.217Z,17.00
2023-04-14T10:27:06.230Z,17.10
2023-04-14T10:29:42.117Z,17.30
2023-04-14T10:32:17.651Z,17.50
2023-04-14T10:35:01.660Z,17.80
2023-04-14T10:37:37.193Z,18.00
2023-04-14T10:40:11.233Z,18.20
2023-04-14T10:42:54.608Z,18.40
2023-04-14T10:45:28.195Z,18.60
2023-04-14T10:48:02.078Z,18.80
2023-04-14T10:50:49.010Z,18.80
2023-04-14T10:53:26.651Z,19.00
2023-04-14T10:56:04.953Z,19.30
2023-04-14T10:58:38.993Z,19.20
2023-04-14T11:01:26.644Z,19.20
2023-04-14T11:04:17.624Z,19.30
2023-04-14T11:06:56.068Z,19.30
2023-04-14T11:09:37.694Z,19.40
2023-04-14T11:12:26.081Z,19.30
2023-04-14T11:15:04.763Z,19.30
2023-04-14T11:17:39.634Z,19.10
2023-04-14T11:20:17.320Z,19.10
2023-04-14T11:22:52.518Z,19.00
2023-04-14T11:25:27.404Z,18.90
2023-04-14T11:28:03.590Z,18.90
2023-04-14T11:30:37.714Z,18.90
2023-04-14T11:33:11.460Z,18.90
2023-04-14T11:35:45.944Z,18.90
2023-04-14T11:38:19.578Z,18.90
2023-04-14T11:40:54.795Z,18.80
2023-04-14T11:43:31.589Z,18.90
2023-04-14T11:46:08.319Z,18.90
2023-04-14T11:48:42.241Z,18.80
2023-04-14T11:51:15.892Z,18.60
2023-04-14T11:53:49.392Z,18.40
2023-04-14T11:56:24.899Z,18.20
2023-04-14T11:59:02.459Z,18.20
2023-04-14T12:01:36.084Z,18.10
2023-04-14T12:04:10.728Z,18.00
2023-04-14T12:06:45.397Z,18.10
2023-04-14T12:09:18.869Z,18.10
2023-04-14T12:11:57.367Z,18.00
2023-04-14T12:14:31.128Z,17.90
2023-04-14T12:17:04.763Z,17.90
2023-04-14T12:19:38.742Z,17.90
2023-04-14T12:22:12.348Z,17.80
2023-04-14T12:24:45.764Z,17.80
2023-04-14T12:27:23.544Z,17.70
2023-04-14T12:29:57.988Z,17.70
2023-04-14T12:32:39.638Z,17.60
2023-04-14T12:35:13.185Z,17.60
2023-04-14T12:37:50.064Z,17.60
2023-04-14T12:40:41.116Z,17.70
2023-04-14T12:43:17.264Z,17.70
2023-04-14T12:45:51.216Z,17.80
2023-04-14T12:48:40.102Z,17.90
2023-04-14T12:51:16.410Z,18.00
2023-04-14T12:53:51.369Z,18.10
2023-04-14T12:56:25.106Z,18.20
2023-04-14T12:59:00.283Z,18.20
2023-04-14T13:01:34.214Z,18.30
2023-04-14T13:04:08.098Z,18.30
2023-04-14T13:06:41.706Z,18.30
2023-04-14T13:09:15.711Z,18.30
2023-04-14T13:11:49.172Z,18.30
2023-04-14T13:14:24.004Z,18.30
2023-04-14T13:16:57.516Z,18.40
2023-04-14T13:19:31.026Z,18.40
2023-04-14T13:22:04.480Z,18.40
2023-04-14T13:24:37.989Z,18.30
2023-04-14T13:27:11.598Z,18.30
2023-04-14T13:29:46.546Z,18.30
2023-04-14T13:32:20.139Z,18.30
2023-04-14T13:34:53.908Z,18.20
2023-04-14T13:37:27.403Z,18.20
2023-04-14T13:40:01.001Z,18.20
2023-04-14T13:42:34.480Z,18.00
2023-04-14T13:45:11.085Z,18.00
2023-04-14T13:47:49.009Z,17.90
2023-04-14T13:50:23.046Z,17.90
2023-04-14T13:52:56.571Z,17.90
2023-04-14T13:55:30.144Z,17.80
2023-04-14T13:58:03.677Z,17.80
2023-04-14T14:00:38.885Z,17.70
2023-04-14T14:03:12.690Z,17.70
2023-04-14T14:05:46.323Z,17.60
2023-04-14T14:08:19.865Z,17.60
2023-04-14T14:10:54.407Z,17.50
2023-04-14T14:13:27.921Z,17.50
2023-04-14T14:16:02.832Z,17.40
2023-04-14T14:18:37.953Z,17.30
2023-04-14T14:21:11.435Z,17.10
2023-04-14T14:23:44.924Z,17.00
2023-04-14T14:26:18.389Z,16.90
2023-04-14T14:28:51.885Z,16.70
2023-04-14T14:31:26.844Z,16.70
2023-04-14T14:34:00.865Z,16.50
2023-04-14T14:36:34.642Z,16.50
2023-04-14T14:39:09.246Z,16.30
2023-04-14T14:41:42.912Z,16.20
2023-04-14T14:44:17.343Z,16.10
2023-04-14T14:46:52.847Z,16.10
2023-04-14T14:49:26.499Z,16.00
2023-04-14T14:52:01.824Z,15.90
2023-04-14T14:54:36.719Z,15.80
2023-04-14T14:57:10.292Z,15.80
2023-04-14T14:59:44.023Z,15.70
2023-04-14T15:02:18.917Z,15.60
2023-04-14T15:04:52.583Z,15.40
2023-04-14T15:07:26.113Z,15.30
2023-04-14T15:10:01.624Z,15.30
2023-04-14T15:12:35.187Z,15.20
2023-04-14T15:15:09.617Z,15.10
2023-04-14T15:17:44.549Z,15.00
2023-04-14T15:20:18.220Z,15.00
2023-04-14T15:22:51.745Z,14.90
2023-04-14T15:25:25.540Z,14.80
2023-04-14T15:27:59.044Z,14.70
2023-04-14T15:30:32.524Z,14.60
2023-04-14T15:33:07.723Z,14.50
2023-04-14T15:35:42.191Z,14.40
2023-04-14T15:38:16.342Z,14.30
2023-04-14T15:40:49.941Z,14.20
2023-04-14T15:43:23.532Z,14.10
2023-04-14T15:45:57.044Z,14.00
2023-04-14T15:48:31.961Z,14.00
2023-04-14T15:51:06.355Z,13.90
2023-04-14T15:53:39.846Z,13.90
2023-04-14T15:56:13.377Z,13.80
2023-04-14T15:58:46.882Z,13.70
2023-04-14T16:01:20.820Z,13.60
2023-04-14T16:03:55.756Z,13.50
2023-04-14T16:06:30.041Z,13.50
2023-04-14T16:09:03.776Z,13.40
2023-04-14T16:11:37.522Z,13.30
2023-04-14T16:14:11.090Z,13.20
2023-04-14T16:16:47.146Z,13.10
2023-04-14T16:19:22.390Z,13.00
2023-04-14T16:21:57.126Z,12.90
2023-04-14T16:24:30.813Z,12.80
2023-04-14T16:27:04.338Z,12.80
2023-04-14T16:29:37.976Z,12.70
2023-04-14T16:32:11.486Z,12.70
2023-04-14T16:34:46.743Z,12.60
2023-04-14T16:37:21.147Z,12.50
2023-04-14T16:39:56.047Z,12.40
2023-04-14T16:42:29.761Z,12.30
2023-04-14T16:45:03.363Z,12.20
2023-04-14T16:47:36.884Z,12.20
2023-04-14T16:50:12.364Z,12.10
2023-04-14T16:52:45.819Z,12.10
2023-04-14T16:55:19.425Z,12.00
2023-04-14T16:57:52.873Z,11.90
2023-04-14T17:00:26.658Z,11.90
2023-04-14T17:03:00.437Z,11.90
2023-04-14T17:05:35.719Z,11.80
2023-04-14T17:08:09.246Z,11.80
2023-04-14T17:10:43.144Z,11.70
2023-04-14T17:13:16.777Z,11.70
2023-04-14T17:15:58.912Z,11.70
2023-04-14T17:18:41.737Z,11.60
2023-04-14T17:21:17.510Z,11.60
2023-04-14T17:23:51.228Z,11.60
2023-04-14T17:26:24.849Z,11.60
2023-04-14T17:28:58.558Z,11.50
2023-04-14T17:31:32.481Z,11.50
2023-04-14T17:34:10.626Z,11.50
2023-04-14T17:36:46.503Z,11.40
2023-04-14T17:39:26.691Z,11.40
2023-04-14T17:42:01.406Z,11.40
2023-04-14T17:44:36.231Z,11.50
2023-04-14T17:47:15.212Z,11.40
2023-04-14T17:49:49.915Z,11.40
2023-04-14T17:52:27.757Z,11.40
2023-04-14T17:55:01.638Z,11.40
2023-04-14T17:57:35.176Z,11.40
2023-04-14T18:00:10.920Z,11.30
2023-04-14T18:02:47.441Z,11.30
2023-04-14T18:05:21.085Z,11.30
2023-04-14T18:07:55.978Z,11.20
2023-04-14T18:10:29.588Z,11.20
2023-04-14T18:13:03.081Z,11.20
2023-04-14T18:15:36.588Z,11.10
2023-04-14T18:18:10.163Z,11.10
2023-04-14T18:20:46.863Z,11.00
2023-04-14T18:23:22.412Z,11.00
2023-04-14T18:28:39.239Z,11.00
2023-04-14T18:31:13.986Z,10.90
2023-04-14T18:33:47.489Z,10.90
2023-04-14T18:36:21.071Z,10.90
2023-04-14T18:38:56.019Z,10.90
2023-04-14T18:41:29.631Z,10.90
2023-04-14T18:44:04.370Z,10.80
2023-04-14T18:46:38.936Z,10.80
2023-04-14T18:49:12.475Z,10.80
2023-04-14T18:51:45.961Z,10.70
2023-04-14T18:54:21.910Z,10.70
2023-04-14T18:56:55.402Z,10.70
2023-04-14T18:59:30.069Z,10.60
2023-04-14T19:02:04.715Z,10.50
2023-04-14T19:04:38.395Z,10.50
2023-04-14T19:07:12.195Z,10.50
2023-04-14T19:09:47.242Z,10.60
2023-04-14T19:12:28.194Z,10.50
2023-04-14T19:15:04.354Z,10.50
2023-04-14T19:17:38.019Z,10.50
2023-04-14T19:20:12.301Z,10.60
2023-04-14T19:22:45.772Z,10.60
2023-04-14T19:25:20.658Z,10.60
2023-04-14T19:27:54.209Z,10.60
2023-04-14T19:30:28.606Z,10.60
2023-04-14T19:33:02.098Z,10.50
2023-04-14T19:35:35.994Z,10.50
2023-04-14T19:38:09.916Z,10.50
2023-04-14T19:40:49.341Z,10.40
2023-04-14T19:43:22.841Z,10.40
2023-04-14T19:45:57.889Z,10.40
2023-04-14T19:48:31.911Z,10.40
2023-04-14T19:51:05.562Z,10.40
2023-04-14T19:53:39.112Z,10.40
2023-04-14T19:56:14.540Z,10.40
2023-04-14T19:58:48.120Z,10.30
2023-04-14T20:01:24.583Z,10.30
2023-04-14T20:04:08.056Z,10.30
2023-04-14T20:06:46.308Z,10.20
2023-04-14T20:09:19.859Z,10.20
2023-04-14T20:11:54.748Z,10.20
2023-04-14T20:14:28.232Z,10.10
2023-04-14T20:17:02.241Z,10.10
2023-04-14T20:19:35.751Z,10.10
2023-04-14T20:22:09.447Z,10.10
2023-04-14T20:24:42.968Z,10.10
2023-04-14T20:27:17.951Z,10.10
2023-04-14T20:29:51.488Z,10.10
2023-04-14T20:32:25.638Z,10.00
2023-04-14T20:34:59.527Z,10.00
2023-04-14T20:37:33.734Z,10.00
2023-04-14T20:40:08.778Z,10.00
2023-04-14T20:42:43.646Z,10.00
2023-04-14T20:45:17.609Z,9.90
2023-04-14T20:47:51.624Z,9.90
2023-04-14T20:50:25.571Z,9.80
2023-04-14T20:52:59.824Z,9.80
2023-04-14T20:55:33.554Z,9.80
2023-04-14T20:58:08.391Z,9.70
2023-04-14T21:00:42.156Z,9.70
2023-04-14T21:03:15.907Z,9.60
2023-04-14T21:05:49.511Z,9.60
2023-04-14T21:08:22.967Z,9.60
2023-04-14T21:11:14.685Z,9.60
2023-04-14T21:15:30.176Z,9.50
2023-04-14T21:16:45.221Z,9.50
2023-04-14T21:19:19.527Z,9.40
2023-04-14T21:21:52.953Z,9.40
2023-04-14T21:24:27.620Z,9.30
2023-04-14T21:27:01.839Z,9.30
2023-04-14T21:29:36.674Z,9.30
2023-04-14T21:32:10.150Z,9.20
2023-04-14T21:34:43.614Z,9.20
2023-04-14T21:37:19.088Z,9.10
2023-04-14T21:39:52.901Z,9.10
2023-04-14T21:42:27.635Z,9.10
2023-04-14T21:45:06.154Z,9.00
2023-04-14T21:47:39.727Z,9.00
2023-04-14T21:50:13.416Z,8.90
2023-04-14T21:52:47.187Z,8.90
2023-04-14T21:55:20.836Z,8.80
2023-04-14T21:57:55.612Z,8.80
2023-04-14T22:00:31.097Z,8.80
2023-04-14T22:03:04.790Z,8.70
2023-04-14T22:05:38.995Z,8.60
2023-04-14T22:08:12.524Z,8.50
2023-04-14T22:10:47.429Z,8.40
2023-04-14T22:13:20.947Z,8.30
2023-04-14T22:15:56.676Z,8.20
2023-04-14T22:18:31.033Z,8.20
2023-04-14T22:21:04.885Z,8.10
2023-04-14T22:23:40.155Z,8.10
2023-04-14T22:26:14.490Z,8.10
2023-04-14T22:28:47.984Z,8.10
2023-04-14T22:31:24.849Z,8.10
2023-04-14T22:33:58.453Z,8.10
2023-04-14T22:36:31.969Z,8.10
2023-04-14T22:39:05.501Z,8.10
2023-04-14T22:41:38.947Z,8.00
2023-04-14T22:44:12.980Z,8.00
2023-04-14T22:46:47.865Z,8.00
2023-04-14T22:49:21.510Z,8.00
2023-04-14T22:51:54.970Z,8.00
2023-04-14T22:54:28.799Z,7.90
2023-04-14T22:57:02.318Z,8.00
2023-04-14T22:59:35.805Z,8.00
2023-04-14T23:02:11.561Z,8.00
2023-04-14T23:04:45.160Z,8.00
2023-04-14T23:07:18.657Z,7.90
2023-04-14T23:09:52.098Z,7.90
2023-04-14T23:12:25.602Z,7.90
2023-04-14T23:14:59.088Z,7.90
2023-04-14T23:17:36.404Z,7.90
2023-04-14T23:20:10.594Z,7.90
2023-04-14T23:22:44.081Z,7.90
2023-04-14T23:25:18.294Z,7.90
2023-04-14T23:27:51.745Z,7.90
2023-04-14T23:30:26.118Z,7.90
2023-04-14T23:33:01.285Z,7.90
2023-04-14T23:35:35.926Z,7.90
2023-04-14T23:38:09.402Z,7.90
2023-04-14T23:40:42.857Z,7.90
2023-04-14T23:43:16.767Z,7.90
2023-04-14T23:45:50.238Z,7.90
2023-04-14T23:48:25.742Z,8.00
2023-04-14T23:51:03.484Z,8.00
2023-04-14T23:53:49.464Z,8.10
2023-04-14T23:56:23.072Z,8.20
2023-04-14T23:58:56.576Z,8.20
